createdAt,value
2023-02-05T00:01:29.198Z,2.21
2023-02-05T00:03:56.175Z,2.20
2023-02-05T00:06:23.300Z,2.18
2023-02-05T00:08:50.340Z,2.18
2023-02-05T00:11:17.338Z,2.13
2023-02-05T00:13:44.558Z,2.13
2023-02-05T00:16:15.435Z,2.12
2023-02-05T00:18:42.746Z,2.16
2023-02-05T00:21:10.494Z,2.15
2023-02-05T00:23:37.993Z,2.16
2023-02-05T00:26:06.099Z,2.18
2023-02-05T00:28:35.331Z,2.21
2023-02-05T00:31:19.707Z,2.12
2023-02-05T00:33:48.277Z,2.10
2023-02-05T00:36:16.148Z,2.07
2023-02-05T00:38:44.963Z,1.94
2023-02-05T00:41:12.857Z,1.92
2023-02-05T00:43:40.859Z,1.86
2023-02-05T00:46:08.577Z,1.81
2023-02-05T00:48:35.439Z,1.80
2023-02-05T00:51:02.809Z,1.84
2023-02-05T00:53:30.056Z,1.87
2023-02-05T00:55:56.924Z,1.91
2023-02-05T00:58:23.867Z,1.97
2023-02-05T01:00:51.783Z,2.02
2023-02-05T01:03:20.657Z,2.05
2023-02-05T01:05:47.796Z,2.08
2023-02-05T01:08:15.080Z,2.14
2023-02-05T01:10:50.256Z,2.18
2023-02-05T01:13:18.375Z,2.12
2023-02-05T01:15:45.710Z,2.13
2023-02-05T01:18:12.711Z,2.15
2023-02-05T01:20:41.628Z,2.17
2023-02-05T01:23:09.175Z,2.18
2023-02-05T01:25:36.171Z,2.21
2023-02-05T01:28:03.386Z,2.24
2023-02-05T01:30:30.316Z,2.24
2023-02-05T01:32:57.278Z,2.20
2023-02-05T01:35:24.206Z,2.24
2023-02-05T01:37:51.082Z,2.25
2023-02-05T01:40:19.075Z,2.18
2023-02-05T01:42:45.931Z,2.14
2023-02-05T01:45:21.879Z,2.13
2023-02-05T01:47:54.245Z,2.16
2023-02-05T01:50:49.229Z,2.23
2023-02-05T01:53:28.351Z,2.26
2023-02-05T01:56:09.870Z,2.32
2023-02-05T01:58:46.348Z,2.38
2023-02-05T02:01:13.266Z,2.45
2023-02-05T02:03:40.577Z,2.48
2023-02-05T02:06:07.861Z,2.42
2023-02-05T02:08:34.747Z,2.49
2023-02-05T02:11:05.309Z,2.57
2023-02-05T02:13:34.422Z,2.57
2023-02-05T02:16:03.059Z,2.48
2023-02-05T02:18:31.408Z,2.50
2023-02-05T02:21:58.678Z,2.54
2023-02-05T02:24:38.491Z,2.51
2023-02-05T02:27:41.093Z,2.52
2023-02-05T02:30:41.189Z,2.46
2023-02-05T02:33:21.139Z,2.40
2023-02-05T02:36:09.866Z,2.25
2023-02-05T02:39:21.891Z,2.11
2023-02-05T02:42:12.351Z,2.06
2023-02-05T02:44:57.315Z,2.00
2023-02-05T02:47:29.876Z,2.01
2023-02-05T02:50:09.534Z,1.95
2023-02-05T02:52:40.588Z,1.95
2023-02-05T02:55:11.406Z,1.88
2023-02-05T02:57:42.130Z,1.78
2023-02-05T03:00:30.299Z,1.77
2023-02-05T03:03:03.331Z,1.74
2023-02-05T03:05:30.911Z,1.71
2023-02-05T03:08:05.586Z,1.67
2023-02-05T03:10:47.770Z,1.59
2023-02-05T03:13:14.544Z,1.60
2023-02-05T03:15:43.975Z,1.60
2023-02-05T03:18:12.550Z,1.60
2023-02-05T03:20:57.115Z,1.55
2023-02-05T03:23:27.093Z,1.50
2023-02-05T03:25:54.235Z,1.48
2023-02-05T03:28:21.902Z,1.46
2023-02-05T03:31:11.013Z,1.45
2023-02-05T03:34:12.577Z,1.43
2023-02-05T03:37:03.396Z,1.38
2023-02-05T03:40:38.739Z,1.29
2023-02-05T03:43:30.335Z,1.24
2023-02-05T03:46:39.666Z,1.22
2023-02-05T03:49:21.256Z,1.21
2023-02-05T03:52:17.796Z,1.17
2023-02-05T03:55:15.986Z,1.18
2023-02-05T03:58:04.743Z,1.18
2023-02-05T04:00:32.413Z,1.15
2023-02-05T04:02:59.451Z,1.19
2023-02-05T04:05:26.311Z,1.20
2023-02-05T04:07:53.268Z,1.22
2023-02-05T04:10:20.256Z,1.17
2023-02-05T04:12:47.137Z,1.16
2023-02-05T04:15:14.171Z,1.15
2023-02-05T04:17:41.439Z,1.17
2023-02-05T04:20:09.307Z,1.19
2023-02-05T04:22:36.114Z,1.24
2023-02-05T04:25:02.937Z,1.23
2023-02-05T04:27:29.836Z,1.15
2023-02-05T04:29:56.702Z,1.17
2023-02-05T04:32:24.122Z,1.13
2023-02-05T04:34:51.400Z,1.10
2023-02-05T04:37:18.274Z,1.10
2023-02-05T04:39:45.062Z,1.05
2023-02-05T04:42:11.918Z,1.03
2023-02-05T04:44:38.754Z,0.99
2023-02-05T04:47:05.555Z,0.95
2023-02-05T04:49:33.569Z,0.96
2023-02-05T04:52:00.636Z,0.92
2023-02-05T04:54:28.517Z,0.94
2023-02-05T04:56:55.340Z,0.90
2023-02-05T04:59:22.421Z,0.89
2023-02-05T05:01:49.242Z,0.87
2023-02-05T05:04:16.057Z,0.89
2023-02-05T05:06:42.903Z,0.93
2023-02-05T05:09:09.836Z,0.93
2023-02-05T05:11:36.663Z,0.91
2023-02-05T05:14:03.540Z,0.87
2023-02-05T05:16:30.333Z,0.82
2023-02-05T05:18:57.156Z,0.78
2023-02-05T05:21:24.144Z,0.76
2023-02-05T05:23:50.948Z,0.71
2023-02-05T05:26:17.808Z,0.68
2023-02-05T05:28:44.661Z,0.67
2023-02-05T05:31:19.578Z,0.70
2023-02-05T05:33:46.583Z,0.72
2023-02-05T05:36:14.026Z,0.76
2023-02-05T05:38:41.091Z,0.72
2023-02-05T05:41:26.891Z,0.74
2023-02-05T05:43:54.823Z,0.68
2023-02-05T05:46:26.607Z,0.58
2023-02-05T05:48:56.870Z,0.52
2023-02-05T05:51:25.959Z,0.55
2023-02-05T05:53:53.597Z,0.62
2023-02-05T05:56:20.887Z,0.69
2023-02-05T05:58:48.460Z,0.71
2023-02-05T06:01:19.068Z,0.80
2023-02-05T06:03:45.867Z,0.76
2023-02-05T06:06:13.352Z,0.83
2023-02-05T06:08:40.255Z,0.87
2023-02-05T06:11:07.080Z,0.93
2023-02-05T06:13:34.881Z,0.94
2023-02-05T06:16:01.984Z,0.92
2023-02-05T06:18:28.913Z,0.82
2023-02-05T06:20:55.763Z,0.79
2023-02-05T06:23:22.617Z,0.84
2023-02-05T06:25:49.573Z,0.87
2023-02-05T06:28:16.458Z,0.87
2023-02-05T06:30:43.353Z,0.86
2023-02-05T06:33:12.685Z,0.86
2023-02-05T06:35:40.860Z,0.91
2023-02-05T06:38:08.342Z,0.94
2023-02-05T06:40:36.360Z,0.90
2023-02-05T06:43:03.643Z,0.85
2023-02-05T06:45:30.741Z,0.75
2023-02-05T06:47:58.239Z,0.71
2023-02-05T06:50:25.653Z,0.65
2023-02-05T06:52:52.643Z,0.67
2023-02-05T06:55:19.644Z,0.65
2023-02-05T06:57:46.521Z,0.65
2023-02-05T07:00:15.017Z,0.70
2023-02-05T07:02:41.894Z,0.71
2023-02-05T07:05:08.987Z,0.83
2023-02-05T07:07:35.905Z,0.96
2023-02-05T07:10:04.234Z,1.06
2023-02-05T07:12:31.157Z,1.11
2023-02-05T07:14:57.982Z,1.12
2023-02-05T07:17:25.072Z,1.20
2023-02-05T07:19:51.992Z,1.28
2023-02-05T07:22:18.926Z,1.40
2023-02-05T07:24:45.730Z,1.45
2023-02-05T07:27:12.592Z,1.53
2023-02-05T07:29:39.423Z,1.52
2023-02-05T07:32:06.342Z,1.51
2023-02-05T07:34:33.210Z,1.51
2023-02-05T07:36:59.998Z,1.66
2023-02-05T07:39:28.145Z,1.93
2023-02-05T07:41:55.060Z,2.06
2023-02-05T07:44:22.258Z,2.22
2023-02-05T07:46:49.243Z,2.64
2023-02-05T07:49:16.082Z,3.17
2023-02-05T07:51:42.992Z,3.65
2023-02-05T07:54:11.117Z,3.82
2023-02-05T07:56:38.004Z,3.93
2023-02-05T07:59:04.993Z,3.91
2023-02-05T08:01:32.255Z,4.31
2023-02-05T08:03:59.124Z,4.53
2023-02-05T08:06:25.974Z,4.63
2023-02-05T08:08:53.038Z,4.65
2023-02-05T08:11:20.841Z,4.88
2023-02-05T08:13:48.025Z,5.05
2023-02-05T08:16:15.921Z,5.27
2023-02-05T08:18:43.624Z,5.73
2023-02-05T08:21:10.503Z,6.06
2023-02-05T08:23:37.296Z,6.24
2023-02-05T08:26:04.357Z,6.97
2023-02-05T08:28:31.206Z,6.83
2023-02-05T08:30:58.660Z,7.12
2023-02-05T08:33:25.787Z,7.70
2023-02-05T08:35:52.734Z,8.80
2023-02-05T08:38:19.545Z,9.05
2023-02-05T08:40:46.368Z,9.10
2023-02-05T08:43:13.327Z,9.98
2023-02-05T08:45:40.341Z,8.34
2023-02-05T08:48:07.303Z,8.63
2023-02-05T08:50:34.182Z,8.33
2023-02-05T08:53:01.297Z,7.90
2023-02-05T08:55:28.221Z,7.87
2023-02-05T08:57:55.457Z,7.93
2023-02-05T09:00:22.646Z,9.05
2023-02-05T09:02:49.690Z,9.98
2023-02-05T09:05:16.654Z,10.51
2023-02-05T09:07:43.562Z,11.00
2023-02-05T09:10:13.364Z,11.63
2023-02-05T09:12:40.646Z,11.84
2023-02-05T09:15:08.921Z,10.72
2023-02-05T09:17:35.764Z,9.69
2023-02-05T09:20:03.599Z,9.41
2023-02-05T09:22:30.561Z,8.72
2023-02-05T09:24:58.499Z,9.31
2023-02-05T09:27:25.368Z,10.04
2023-02-05T09:29:52.259Z,10.55
2023-02-05T09:32:19.172Z,9.84
2023-02-05T09:34:46.020Z,9.25
2023-02-05T09:37:12.980Z,9.28
2023-02-05T09:42:43.098Z,11.08
2023-02-05T09:45:59.029Z,11.87
2023-02-05T09:48:52.798Z,11.76
2023-02-05T09:51:34.494Z,11.34
2023-02-05T09:54:28.685Z,11.00
2023-02-05T09:57:05.629Z,11.33
2023-02-05T09:59:34.140Z,11.41
2023-02-05T10:02:21.017Z,11.94
2023-02-05T10:04:47.988Z,12.55
2023-02-05T10:07:37.550Z,12.71
2023-02-05T10:10:42.256Z,13.64
2023-02-05T10:13:36.780Z,14.18
2023-02-05T10:16:47.682Z,14.05
2023-02-05T10:19:49.151Z,14.98
2023-02-05T10:22:33.053Z,14.16
2023-02-05T10:25:36.936Z,13.57
2023-02-05T10:28:15.715Z,13.28
2023-02-05T10:30:58.579Z,12.53
2023-02-05T10:33:56.085Z,13.81
2023-02-05T10:36:26.817Z,14.40
2023-02-05T10:38:57.266Z,13.04
2023-02-05T10:41:32.101Z,13.58
2023-02-05T10:44:28.054Z,15.05
2023-02-05T10:47:40.584Z,14.56
2023-02-05T10:50:14.573Z,11.18
2023-02-05T10:52:41.789Z,9.78
2023-02-05T10:55:13.591Z,8.63
2023-02-05T10:57:40.669Z,8.42
2023-02-05T11:00:21.336Z,9.58
2023-02-05T11:02:52.280Z,10.24
2023-02-05T11:05:38.276Z,10.67
2023-02-05T11:08:05.478Z,10.50
2023-02-05T11:10:35.887Z,9.89
2023-02-05T11:13:19.651Z,9.66
2023-02-05T11:16:05.802Z,10.00
2023-02-05T11:18:39.760Z,10.44
2023-02-05T11:21:09.693Z,10.73
2023-02-05T11:23:41.294Z,11.08
2023-02-05T11:26:17.759Z,11.33
2023-02-05T11:28:45.131Z,11.46
2023-02-05T11:31:28.893Z,11.65
2023-02-05T11:34:07.988Z,11.09
2023-02-05T11:36:40.462Z,11.01
2023-02-05T11:39:08.064Z,10.70
2023-02-05T11:41:51.861Z,9.81
2023-02-05T11:44:28.000Z,10.02
2023-02-05T11:47:00.211Z,9.76
2023-02-05T11:49:41.059Z,9.43
2023-02-05T11:52:16.807Z,9.59
2023-02-05T11:54:49.030Z,9.24
2023-02-05T11:57:19.706Z,9.15
2023-02-05T12:00:07.386Z,9.39
2023-02-05T12:02:37.459Z,9.20
2023-02-05T12:05:19.333Z,7.87
2023-02-05T12:08:16.995Z,7.06
2023-02-05T12:11:01.585Z,7.18
2023-02-05T12:13:59.420Z,7.39
2023-02-05T12:16:41.661Z,7.87
2023-02-05T12:19:20.374Z,8.12
2023-02-05T12:22:12.395Z,8.26
2023-02-05T12:24:55.021Z,8.44
2023-02-05T12:27:33.759Z,8.37
2023-02-05T12:30:19.031Z,8.51
2023-02-05T12:33:16.696Z,8.44
2023-02-05T12:36:18.286Z,8.31
2023-02-05T12:39:33.341Z,8.19
2023-02-05T12:42:40.588Z,8.12
2023-02-05T12:45:34.894Z,8.22
2023-02-05T12:48:49.221Z,7.98
2023-02-05T12:51:50.716Z,8.09
2023-02-05T12:54:50.866Z,8.15
2023-02-05T12:57:37.625Z,7.89
2023-02-05T13:00:13.759Z,7.66
2023-02-05T13:03:02.728Z,7.79
2023-02-05T13:05:53.930Z,7.88
2023-02-05T13:08:49.476Z,7.88
2023-02-05T13:11:42.133Z,7.72
2023-02-05T13:14:12.030Z,7.85
2023-02-05T13:16:48.828Z,7.90
2023-02-05T13:19:39.294Z,7.89
2023-02-05T13:22:37.027Z,7.95
2023-02-05T13:25:38.027Z,7.99
2023-02-05T13:28:42.714Z,7.95
2023-02-05T13:31:28.686Z,8.03
2023-02-05T13:34:02.468Z,8.08
2023-02-05T13:37:25.203Z,8.10
2023-02-05T13:40:11.030Z,8.14
2023-02-05T13:43:07.461Z,8.02
2023-02-05T13:45:51.378Z,8.05
2023-02-05T13:48:54.633Z,7.97
2023-02-05T13:51:45.881Z,7.90
2023-02-05T13:54:46.694Z,7.90
2023-02-05T13:57:40.769Z,7.75
2023-02-05T14:00:12.586Z,7.81
2023-02-05T14:02:49.442Z,7.73
2023-02-05T14:05:27.966Z,7.68
2023-02-05T14:07:57.781Z,7.42
2023-02-05T14:10:28.530Z,7.42
2023-02-05T14:13:19.330Z,7.37
2023-02-05T14:15:46.570Z,7.34
2023-02-05T14:18:45.165Z,7.09
2023-02-05T14:22:11.310Z,7.13
2023-02-05T14:24:41.042Z,7.10
2023-02-05T14:27:26.277Z,7.12
2023-02-05T14:29:53.577Z,6.93
2023-02-05T14:32:26.148Z,6.78
2023-02-05T14:35:10.656Z,6.87
2023-02-05T14:37:42.599Z,6.88
2023-02-05T14:40:35.900Z,6.86
2023-02-05T14:43:43.944Z,6.70
2023-02-05T14:46:40.226Z,6.66
2023-02-05T14:49:22.250Z,6.50
2023-02-05T14:52:02.907Z,6.52
2023-02-05T14:54:44.232Z,6.48
2023-02-05T14:57:51.125Z,6.59
2023-02-05T15:00:26.068Z,6.51
2023-02-05T15:03:05.709Z,6.46
2023-02-05T15:05:43.199Z,6.43
2023-02-05T15:08:26.825Z,6.42
2023-02-05T15:11:09.016Z,6.43
2023-02-05T15:13:36.014Z,6.26
2023-02-05T15:16:11.663Z,6.20
2023-02-05T15:18:53.842Z,6.25
2023-02-05T15:21:37.369Z,6.26
2023-02-05T15:24:17.358Z,6.29
2023-02-05T15:27:07.289Z,6.29
2023-02-05T15:29:57.160Z,6.23
2023-02-05T15:32:48.607Z,6.06
2023-02-05T15:35:20.179Z,6.11
2023-02-05T15:37:56.551Z,6.04
2023-02-05T15:40:31.381Z,6.01
2023-02-05T15:43:11.939Z,6.07
2023-02-05T15:45:44.756Z,6.01
2023-02-05T15:48:12.796Z,6.11
2023-02-05T15:50:59.079Z,5.94
2023-02-05T15:53:43.899Z,5.98
2023-02-05T15:56:25.188Z,5.95
2023-02-05T15:59:05.250Z,5.91
2023-02-05T16:01:46.582Z,5.89
2023-02-05T16:04:22.469Z,5.85
2023-02-05T16:06:49.871Z,5.83
2023-02-05T16:09:24.232Z,5.73
2023-02-05T16:11:51.490Z,5.65
2023-02-05T16:14:22.495Z,5.67
2023-02-05T16:17:18.667Z,5.62
2023-02-05T16:20:09.748Z,5.67
2023-02-05T16:22:42.290Z,5.65
2023-02-05T16:25:29.347Z,5.63
2023-02-05T16:27:58.541Z,5.61
2023-02-05T16:30:40.863Z,5.59
2023-02-05T16:33:21.033Z,5.62
2023-02-05T16:35:48.876Z,5.59
2023-02-05T16:38:18.967Z,5.53
2023-02-05T16:40:58.102Z,5.53
2023-02-05T16:43:37.723Z,5.56
2023-02-05T16:46:07.428Z,5.57
2023-02-05T16:48:46.720Z,5.59
2023-02-05T16:51:41.099Z,5.62
2023-02-05T16:54:10.926Z,5.67
2023-02-05T16:56:47.247Z,5.61
2023-02-05T16:59:23.090Z,5.60
2023-02-05T17:01:52.328Z,5.56
2023-02-05T17:04:36.990Z,5.55
2023-02-05T17:07:16.116Z,5.52
2023-02-05T17:09:43.067Z,5.61
2023-02-05T17:12:21.986Z,5.54
2023-02-05T17:14:57.585Z,5.49
2023-02-05T17:17:26.806Z,5.47
2023-02-05T17:20:28.108Z,5.49
2023-02-05T17:23:00.656Z,5.49
2023-02-05T17:25:39.812Z,5.46
2023-02-05T17:28:13.229Z,5.37
2023-02-05T17:30:43.342Z,5.36
2023-02-05T17:33:23.562Z,5.39
2023-02-05T17:35:50.917Z,5.35
2023-02-05T17:38:20.468Z,5.44
2023-02-05T17:40:47.544Z,5.31
2023-02-05T17:43:14.463Z,5.27
2023-02-05T17:45:42.961Z,5.30
2023-02-05T17:48:11.575Z,5.30
2023-02-05T17:50:38.992Z,5.29
2023-02-05T17:53:06.045Z,5.30
2023-02-05T17:55:33.234Z,5.28
2023-02-05T17:58:00.275Z,5.32
2023-02-05T18:00:28.821Z,5.24
2023-02-05T18:02:55.662Z,5.23
2023-02-05T18:05:23.306Z,5.26
2023-02-05T18:07:56.827Z,5.26
2023-02-05T18:10:32.033Z,5.24
2023-02-05T18:12:59.382Z,5.19
2023-02-05T18:15:27.641Z,5.21
2023-02-05T18:17:54.559Z,5.24
2023-02-05T18:20:21.683Z,5.20
2023-02-05T18:22:49.208Z,5.16
2023-02-05T18:25:16.249Z,5.20
2023-02-05T18:27:43.159Z,5.24
2023-02-05T18:30:11.229Z,5.18
2023-02-05T18:32:38.318Z,5.13
2023-02-05T18:35:05.595Z,5.11
2023-02-05T18:37:32.464Z,5.11
2023-02-05T18:39:59.403Z,5.08
2023-02-05T18:42:27.069Z,5.06
2023-02-05T18:44:53.959Z,5.10
2023-02-05T18:47:20.931Z,5.13
2023-02-05T18:49:47.780Z,5.14
2023-02-05T18:52:14.623Z,5.18
2023-02-05T18:54:41.453Z,5.17
2023-02-05T18:57:08.330Z,5.16
2023-02-05T18:59:36.768Z,5.11
2023-02-05T19:02:03.707Z,5.10
2023-02-05T19:04:33.022Z,5.08
2023-02-05T19:07:00.083Z,5.07
2023-02-05T19:09:27.584Z,5.07
2023-02-05T19:11:55.540Z,5.11
2023-02-05T19:14:25.321Z,5.01
2023-02-05T19:16:52.758Z,5.04
2023-02-05T19:19:25.141Z,5.07
2023-02-05T19:21:55.235Z,5.11
2023-02-05T19:24:22.541Z,5.12
2023-02-05T19:26:50.798Z,5.13
2023-02-05T19:29:20.552Z,5.12
2023-02-05T19:31:47.768Z,5.12
2023-02-05T19:34:15.637Z,5.12
2023-02-05T19:36:43.331Z,5.11
2023-02-05T19:39:14.281Z,5.15
2023-02-05T19:41:44.094Z,5.11
2023-02-05T19:44:13.559Z,5.10
2023-02-05T19:46:44.236Z,5.09
2023-02-05T19:49:17.705Z,5.09
2023-02-05T19:51:51.059Z,4.90
2023-02-05T19:54:21.177Z,4.91
2023-02-05T19:56:48.941Z,4.90
2023-02-05T19:59:16.747Z,4.76
2023-02-05T20:01:46.055Z,4.75
2023-02-05T20:04:17.224Z,4.84
2023-02-05T20:06:46.470Z,4.81
2023-02-05T20:09:14.676Z,4.78
2023-02-05T20:11:45.869Z,4.76
2023-02-05T20:14:13.235Z,4.72
2023-02-05T20:16:40.577Z,4.60
2023-02-05T20:19:09.971Z,4.78
2023-02-05T20:21:37.148Z,4.73
2023-02-05T20:24:04.653Z,4.80
2023-02-05T20:26:31.642Z,4.81
2023-02-05T20:29:17.401Z,4.83
2023-02-05T20:31:49.482Z,4.74
2023-02-05T20:34:21.265Z,4.76
2023-02-05T20:37:02.097Z,4.83
2023-02-05T20:39:30.413Z,4.83
2023-02-05T20:41:59.452Z,4.91
2023-02-05T20:44:29.959Z,4.90
2023-02-05T20:46:57.037Z,4.91
2023-02-05T20:49:24.576Z,4.93
2023-02-05T20:51:52.969Z,4.86
2023-02-05T20:54:20.658Z,4.77
2023-02-05T20:56:51.223Z,4.83
2023-02-05T20:59:18.090Z,4.65
2023-02-05T21:01:44.990Z,4.66
2023-02-05T21:04:12.684Z,4.72
2023-02-05T21:06:41.067Z,4.68
2023-02-05T21:09:09.786Z,4.56
2023-02-05T21:11:38.134Z,4.58
2023-02-05T21:14:06.011Z,4.45
2023-02-05T21:16:35.906Z,4.37
2023-02-05T21:19:05.803Z,4.31
2023-02-05T21:21:36.173Z,4.41
2023-02-05T21:24:07.928Z,4.46
2023-02-05T21:26:37.543Z,4.50
2023-02-05T21:29:10.007Z,4.46
2023-02-05T21:31:40.648Z,4.49
2023-02-05T21:34:11.465Z,4.53
2023-02-05T21:36:38.487Z,4.53
2023-02-05T21:39:05.538Z,4.52
2023-02-05T21:41:32.905Z,4.47
2023-02-05T21:44:00.944Z,4.50
2023-02-05T21:46:29.894Z,4.55
2023-02-05T21:48:59.346Z,4.58
2023-02-05T21:51:29.789Z,4.53
2023-02-05T21:53:59.545Z,4.47
2023-02-05T21:56:30.856Z,4.44
2023-02-05T21:58:57.814Z,4.39
2023-02-05T22:01:28.718Z,4.29
2023-02-05T22:04:16.833Z,4.21
2023-02-05T22:06:44.265Z,4.09
2023-02-05T22:09:15.125Z,4.03
2023-02-05T22:11:43.460Z,3.94
2023-02-05T22:14:11.044Z,3.80
2023-02-05T22:16:38.589Z,3.72
2023-02-05T22:19:06.171Z,3.66
2023-02-05T22:21:43.066Z,3.55
2023-02-05T22:24:15.592Z,3.52
2023-02-05T22:26:43.243Z,3.44
2023-02-05T22:29:15.677Z,3.41
2023-02-05T22:31:44.419Z,3.36
2023-02-05T22:34:12.069Z,3.28
2023-02-05T22:36:38.914Z,3.21
2023-02-05T22:39:07.266Z,3.18
2023-02-05T22:41:38.104Z,3.11
2023-02-05T22:44:06.919Z,3.05
2023-02-05T22:46:39.256Z,2.96
2023-02-05T22:49:06.325Z,3.00
2023-02-05T22:51:38.074Z,2.93
2023-02-05T22:54:06.476Z,2.89
2023-02-05T22:56:34.021Z,2.77
2023-02-05T22:59:03.226Z,2.64
2023-02-05T23:01:35.730Z,2.64
2023-02-05T23:04:05.579Z,2.64
2023-02-05T23:06:36.263Z,2.58
2023-02-05T23:09:17.575Z,2.53
2023-02-05T23:11:45.461Z,2.51
2023-02-05T23:14:15.836Z,2.46
2023-02-05T23:16:45.150Z,2.39
2023-02-05T23:19:19.709Z,2.35
2023-02-05T23:21:47.255Z,2.35
2023-02-05T23:24:15.271Z,2.35
2023-02-05T23:26:45.195Z,2.34
2023-02-05T23:29:15.248Z,2.32
2023-02-05T23:31:42.480Z,2.24
2023-02-05T23:34:09.889Z,2.19
2023-02-05T23:36:36.975Z,2.21
2023-02-05T23:39:04.602Z,2.15
2023-02-05T23:41:37.293Z,2.16
2023-02-05T23:44:11.462Z,2.05
2023-02-05T23:46:40.162Z,1.80
2023-02-05T23:49:07.374Z,1.75
2023-02-05T23:51:34.557Z,1.73
2023-02-05T23:54:01.800Z,1.72
2023-02-05T23:56:29.548Z,1.65
2023-02-05T23:58:56.705Z,1.67
